• Join FlightAware (Why Join?)
  • Login
  • US Flag 
02:00PM EDT


 

Airport Tracker/Info


-or-


 

Live Flight TrackerFlight Track Log ✈ TC-JJG ✈ 04-May-2012 ✈ LTBA / IST - ZSPD / PVG

Flight Track Log - Related Links

Times and Time Zones

All times are in EDT time to prevent confusion due to time zone crossing. See the TC-JJG flight status page for this flight to view local times or setup timezone preferences in your user account.

Time Position Orientation Groundspeed Altitude Reporting Facility
EDT Latitude Longitude Course Direction KTS MPH feet Rate Location/Type
06:02PM 40.9909 28.8589 64° Northeast  Level Estimated
06:03PM 41.0467 29.0103 64° Northeast  Level Estimated
06:04PM 41.1024 29.1618 64° Northeast  Level Estimated
06:05PM 41.1579 29.3137 64° Northeast  Level Estimated
06:06PM 41.2131 29.4658 64° Northeast  Level Estimated
06:07PM 41.2682 29.6182 64° Northeast  Level Estimated
06:08PM 41.3231 29.7708 64° Northeast  Level Estimated
06:09PM 41.3777 29.9237 65° Northeast  Level Estimated
06:10PM 41.4322 30.0768 65° Northeast  Level Estimated
06:11PM 41.4864 30.2302 65° Northeast  Level Estimated
06:12PM 41.5405 30.3838 65° Northeast  Level Estimated
06:13PM 41.5943 30.5377 65° Northeast  Level Estimated
06:14PM 41.6480 30.6919 65° Northeast  Level Estimated
06:15PM 41.7014 30.8463 65° Northeast  Level Estimated
06:16PM 41.7546 31.0010 65° Northeast  Level Estimated
06:17PM 41.8077 31.1559 65° Northeast  Level Estimated
06:18PM 41.8605 31.3111 66° East  Level Estimated
06:19PM 41.9131 31.4665 66° East  Level Estimated
06:20PM 41.9655 31.6222 66° East  Level Estimated
06:21PM 42.0176 31.7782 66° East  Level Estimated
06:22PM 42.0696 31.9344 66° East  Level Estimated
06:23PM 42.1214 32.0909 66° East  Level Estimated
06:24PM 42.1729 32.2476 66° East  Level Estimated
06:25PM 42.2242 32.4046 66° East  Level Estimated
06:26PM 42.2754 32.5618 66° East  Level Estimated
06:27PM 42.3263 32.7193 66° East  Level Estimated
06:28PM 42.3769 32.8770 67° East  Level Estimated
06:29PM 42.4274 33.0350 67° East  Level Estimated
06:30PM 42.4777 33.1933 67° East  Level Estimated
06:31PM 42.5277 33.3518 67° East  Level Estimated
06:32PM 42.5775 33.5105 67° East  Level Estimated
06:33PM 42.6271 33.6695 67° East  Level Estimated
06:34PM 42.6765 33.8288 67° East  Level Estimated
06:35PM 42.7257 33.9883 67° East  Level Estimated
06:36PM 42.7746 34.1481 67° East  Level Estimated
06:37PM 42.8233 34.3081 68° East  Level Estimated
06:38PM 42.8718 34.4684 68° East  Level Estimated
06:39PM 42.9200 34.6289 68° East  Level Estimated
06:40PM 42.9681 34.7896 68° East  Level Estimated
06:41PM 43.0159 34.9507 68° East  Level Estimated
06:42PM 43.0635 35.1119 68° East  Level Estimated
06:43PM 43.1108 35.2735 68° East  Level Estimated
06:44PM 43.1580 35.4352 68° East  Level Estimated
06:45PM 43.2049 35.5973 68° East  Level Estimated
06:46PM 43.2516 35.7595 69° East  Level Estimated
06:47PM 43.2980 35.9220 69° East  Level Estimated
06:48PM 43.3442 36.0848 69° East  Level Estimated
06:49PM 43.3902 36.2478 69° East  Level Estimated
06:50PM 43.4360 36.4111 69° East  Level Estimated
06:51PM 43.4815 36.5746 69° East  Level Estimated
06:52PM 43.5268 36.7383 69° East  Level Estimated
06:53PM 43.5718 36.9023 69° East  Level Estimated
06:54PM 43.6166 37.0666 69° East  Level Estimated
06:55PM 43.6612 37.2311 70° East  Level Estimated
06:56PM 43.7056 37.3958 70° East  Level Estimated
06:57PM 43.7497 37.5608 70° East  Level Estimated
06:58PM 43.7935 37.7260 70° East  Level Estimated
06:59PM 43.8372 37.8915 70° East  Level Estimated
07:00PM 43.8806 38.0572 70° East  Level Estimated
07:01PM 43.9237 38.2231 70° East  Level Estimated
07:02PM 43.9666 38.3893 70° East  Level Estimated
07:03PM 44.0093 38.5557 70° East  Level Estimated
07:04PM 44.0518 38.7224 71° East  Level Estimated
07:05PM 44.0939 38.8893 71° East  Level Estimated
07:06PM 44.1359 39.0564 71° East  Level Estimated
07:07PM 44.1776 39.2238 71° East  Level Estimated
07:08PM 44.2191 39.3914 71° East  Level Estimated
07:09PM 44.2603 39.5592 71° East  Level Estimated
07:10PM 44.3012 39.7273 71° East  Level Estimated
07:11PM 44.3419 39.8956 71° East  Level Estimated
07:12PM 44.3824 40.0642 71° East  Level Estimated
07:13PM 44.4226 40.2330 72° East  Level Estimated
07:14PM 44.4626 40.4020 72° East  Level Estimated
07:15PM 44.5023 40.5712 72° East  Level Estimated
07:16PM 44.5418 40.7407 72° East  Level Estimated
07:17PM 44.5810 40.9104 72° East  Level Estimated
07:18PM 44.6200 41.0803 72° East  Level Estimated
07:19PM 44.6587 41.2505 72° East  Level Estimated
07:20PM 44.6972 41.4208 72° East  Level Estimated
07:21PM 44.7354 41.5915 73° East  Level Estimated
07:22PM 44.7733 41.7623 73° East  Level Estimated
07:23PM 44.8111 41.9334 73° East  Level Estimated
07:24PM 44.8485 42.1046 73° East  Level Estimated
07:25PM 44.8857 42.2761 73° East  Level Estimated
07:26PM 44.9226 42.4479 73° East  Level Estimated
07:27PM 44.9593 42.6198 73° East  Level Estimated
07:28PM 44.9957 42.7920 73° East  Level Estimated
07:29PM 45.0319 42.9644 74° East  Level Estimated
07:30PM 45.0678 43.1370 74° East  Level Estimated
07:31PM 45.1034 43.3098 74° East  Level Estimated
07:32PM 45.1388 43.4828 74° East  Level Estimated
07:33PM 45.1739 43.6561 74° East  Level Estimated
07:34PM 45.2088 43.8295 74° East  Level Estimated
07:35PM 45.2434 44.0032 74° East  Level Estimated
07:36PM 45.2777 44.1771 74° East  Level Estimated
07:37PM 45.3117 44.3512 75° East  Level Estimated
07:38PM 45.3456 44.5255 75° East  Level Estimated
07:39PM 45.3791 44.7000 75° East  Level Estimated
07:40PM 45.4123 44.8747 75° East  Level Estimated
07:41PM 45.4454 45.0496 75° East  Level Estimated
07:42PM 45.4781 45.2247 75° East  Level Estimated
07:43PM 45.5106 45.4001 75° East  Level Estimated
07:44PM 45.5428 45.5756 75° East  Level Estimated
07:45PM 45.5747 45.7513 76° East  Level Estimated
07:46PM 45.6063 45.9272 76° East  Level Estimated
07:47PM 45.6377 46.1034 76° East  Level Estimated
07:48PM 45.6688 46.2797 76° East  Level Estimated
07:49PM 45.6997 46.4562 76° East  Level Estimated
07:50PM 45.7303 46.6329 76° East  Level Estimated
07:51PM 45.7606 46.8098 76° East  Level Estimated
07:52PM 45.7906 46.9869 76° East  Level Estimated
07:53PM 45.8204 47.1642 77° East  Level Estimated
07:54PM 45.8498 47.3417 77° East  Level Estimated
07:55PM 45.8790 47.5193 77° East  Level Estimated
07:56PM 45.9080 47.6972 77° East  Level Estimated
07:57PM 45.9366 47.8752 77° East  Level Estimated
07:58PM 45.9650 48.0534 77° East  Level Estimated
07:59PM 45.9931 48.2318 77° East  Level Estimated
08:00PM 46.0209 48.4104 77° East  Level Estimated
08:01PM 46.0485 48.5892 78° East  Level Estimated
08:02PM 46.0757 48.7681 78° East  Level Estimated
08:03PM 46.1027 48.9472 78° East  Level Estimated
08:04PM 46.1294 49.1265 78° East  Level Estimated
08:05PM 46.1558 49.3059 78° East  Level Estimated
08:06PM 46.1819 49.4856 78° East  Level Estimated
08:07PM 46.2078 49.6654 78° East  Level Estimated
08:08PM 46.2334 49.8453 78° East  Level Estimated
08:09PM 46.2587 50.0255 79° East  Level Estimated
08:10PM 46.2837 50.2058 79° East  Level Estimated
08:11PM 46.3084 50.3862 79° East  Level Estimated
08:12PM 46.3329 50.5668 79° East  Level Estimated
08:13PM 46.3570 50.7476 79° East  Level Estimated
08:14PM 46.3809 50.9286 79° East  Level Estimated
08:15PM 46.4045 51.1097 79° East  Level Estimated
08:16PM 46.4278 51.2909 80° East  Level Estimated
08:17PM 46.4508 51.4724 80° East  Level Estimated
08:18PM 46.4735 51.6539 80° East  Level Estimated
08:19PM 46.4960 51.8356 80° East  Level Estimated
08:20PM 46.5181 52.0175 80° East  Level Estimated
08:21PM 46.5400 52.1995 80° East  Level Estimated
08:22PM 46.5616 52.3817 80° East  Level Estimated
08:23PM 46.5829 52.5640 80° East  Level Estimated
08:24PM 46.6039 52.7464 81° East  Level Estimated
08:25PM 46.6246 52.9290 81° East  Level Estimated
08:26PM 46.6450 53.1117 81° East  Level Estimated
08:27PM 46.6651 53.2946 81° East  Level Estimated
08:28PM 46.6850 53.4776 81° East  Level Estimated
08:29PM 46.7045 53.6607 81° East  Level Estimated
08:30PM 46.7238 53.8439 81° East  Level Estimated
08:31PM 46.7427 54.0273 81° East  Level Estimated
08:32PM 46.7614 54.2108 82° East  Level Estimated
08:33PM 46.7797 54.3945 82° East  Level Estimated
08:34PM 46.7978 54.5783 82° East  Level Estimated
08:35PM 46.8156 54.7621 82° East  Level Estimated
08:36PM 46.8331 54.9462 82° East  Level Estimated
08:37PM 46.8503 55.1303 82° East  Level Estimated
08:38PM 46.8672 55.3145 82° East  Level Estimated
08:39PM 46.8838 55.4989 83° East  Level Estimated
08:40PM 46.9001 55.6834 83° East  Level Estimated
08:41PM 46.9161 55.8680 83° East  Level Estimated
08:42PM 46.9318 56.0527 83° East  Level Estimated
08:43PM 46.9472 56.2375 83° East  Level Estimated
08:44PM 46.9623 56.4224 83° East  Level Estimated
08:45PM 46.9772 56.6074 83° East  Level Estimated
08:46PM 46.9917 56.7925 84° East  Level Estimated
08:47PM 47.0059 56.9777 84° East  Level Estimated
08:48PM 47.0198 57.1630 84° East  Level Estimated
08:49PM 47.0335 57.3484 84° East  Level Estimated
08:50PM 47.0468 57.5339 84° East  Level Estimated
08:51PM 47.0598 57.7195 84° East  Level Estimated
08:52PM 47.0725 57.9052 84° East  Level Estimated
08:53PM 47.0849 58.0910 84° East  Level Estimated
08:54PM 47.0971 58.2768 85° East  Level Estimated
08:55PM 47.1089 58.4628 85° East  Level Estimated
08:56PM 47.1204 58.6488 85° East  Level Estimated
08:57PM 47.1316 58.8349 85° East  Level Estimated
08:58PM 47.1426 59.0211 85° East  Level Estimated
08:59PM 47.1532 59.2073 85° East  Level Estimated
09:00PM 47.1635 59.3936 85° East  Level Estimated
09:01PM 47.1735 59.5800 86° East  Level Estimated
09:02PM 47.1832 59.7665 86° East  Level Estimated
09:03PM 47.1926 59.9530 86° East  Level Estimated
09:04PM 47.2017 60.1396 86° East  Level Estimated
09:05PM 47.2105 60.3263 86° East  Level Estimated
09:06PM 47.2190 60.5130 86° East  Level Estimated
09:07PM 47.2272 60.6998 86° East  Level Estimated
09:08PM 47.2351 60.8866 87° East  Level Estimated
09:09PM 47.2427 61.0735 87° East  Level Estimated
09:10PM 47.2500 61.2604 87° East  Level Estimated
09:11PM 47.2570 61.4474 87° East  Level Estimated
09:12PM 47.2636 61.6345 87° East  Level Estimated
09:13PM 47.2700 61.8216 87° East  Level Estimated
09:14PM 47.2761 62.0087 87° East  Level Estimated
09:15PM 47.2818 62.1959 87° East  Level Estimated
09:16PM 47.2873 62.3831 88° East  Level Estimated
09:17PM 47.2924 62.5704 88° East  Level Estimated
09:18PM 47.2973 62.7576 88° East  Level Estimated
09:19PM 47.3018 62.9450 88° East  Level Estimated
09:20PM 47.3061 63.1323 88° East  Level Estimated
09:21PM 47.3100 63.3197 88° East  Level Estimated
09:22PM 47.3136 63.5071 88° East  Level Estimated
09:23PM 47.3170 63.6945 89° East  Level Estimated
09:24PM 47.3200 63.8820 89° East  Level Estimated
09:25PM 47.3227 64.0695 89° East  Level Estimated
09:26PM 47.3251 64.2570 89° East  Level Estimated
09:27PM 47.3272 64.4445 89° East  Level Estimated
09:28PM 47.3290 64.6320 89° East  Level Estimated
09:29PM 47.3305 64.8195 89° East  Level Estimated
09:30PM 47.3316 65.0071 90° East  Level Estimated
09:31PM 47.3325 65.1946 90° East  Level Estimated
09:32PM 47.3331 65.3822 90° East  Level Estimated
09:33PM 47.3334 65.5697 90° East  Level Estimated
09:34PM 47.3333 65.7573 90° East  Level Estimated
09:35PM 47.3330 65.9448 90° East  Level Estimated
09:36PM 47.3323 66.1324 90° East  Level Estimated
09:37PM 47.3313 66.3199 91° East  Level Estimated
09:38PM 47.3301 66.5075 91° East  Level Estimated
09:39PM 47.3285 66.6950 91° East  Level Estimated
09:40PM 47.3266 66.8825 91° East  Level Estimated
09:41PM 47.3244 67.0700 91° East  Level Estimated
09:42PM 47.3219 67.2575 91° East  Level Estimated
09:43PM 47.3191 67.4450 91° East  Level Estimated
09:44PM 47.3161 67.6324 91° East  Level Estimated
09:45PM 47.3126 67.8199 92° East  Level Estimated
09:46PM 47.3089 68.0073 92° East  Level Estimated
09:47PM 47.3049 68.1946 92° East  Level Estimated
09:48PM 47.3006 68.3820 92° East  Level Estimated
09:49PM 47.2960 68.5693 92° East  Level Estimated
09:50PM 47.2910 68.7566 92° East  Level Estimated
09:51PM 47.2858 68.9438 92° East  Level Estimated
09:52PM 47.2802 69.1310 93° East  Level Estimated
09:53PM 47.2744 69.3182 93° East  Level Estimated
09:54PM 47.2682 69.5053 93° East  Level Estimated
09:55PM 47.2618 69.6924 93° East  Level Estimated
09:56PM 47.2550 69.8794 93° East  Level Estimated
09:57PM 47.2480 70.0664 93° East  Level Estimated
09:58PM 47.2406 70.2533 93° East  Level Estimated
09:59PM 47.2329 70.4402 94° East  Level Estimated
10:00PM 47.2249 70.6270 94° East  Level Estimated
10:01PM 47.2166 70.8138 94° East  Level Estimated
10:02PM 47.2081 71.0005 94° East  Level Estimated
10:03PM 47.1992 71.1871 94° East  Level Estimated
10:04PM 47.1900 71.3737 94° East  Level Estimated
10:05PM 47.1805 71.5602 94° East  Level Estimated
10:06PM 47.1707 71.7467 94° East  Level Estimated
10:07PM 47.1606 71.9330 95° East  Level Estimated
10:08PM 47.1502 72.1193 95° East  Level Estimated
10:09PM 47.1395 72.3056 95° East  Level Estimated
10:10PM 47.1285 72.4917 95° East  Level Estimated
10:11PM 47.1172 72.6778 95° East  Level Estimated
10:12PM 47.1056 72.8638 95° East  Level Estimated
10:13PM 47.0937 73.0497 95° East  Level Estimated
10:14PM 47.0814 73.2355 96° East  Level Estimated
10:15PM 47.0689 73.4213 96° East  Level Estimated
10:16PM 47.0561 73.6069 96° East  Level Estimated
10:17PM 47.0430 73.7925 96° East  Level Estimated
10:18PM 47.0296 73.9780 96° East  Level Estimated
10:19PM 47.0159 74.1633 96° East  Level Estimated
10:20PM 47.0019 74.3486 96° East  Level Estimated
10:21PM 46.9876 74.5338 97° East  Level Estimated
10:22PM 46.9730 74.7189 97° East  Level Estimated
10:23PM 46.9581 74.9038 97° East  Level Estimated
10:24PM 46.9429 75.0887 97° East  Level Estimated
10:25PM 46.9274 75.2735 97° East  Level Estimated
10:26PM 46.9116 75.4582 97° East  Level Estimated
10:27PM 46.8955 75.6427 97° East  Level Estimated
10:28PM 46.8791 75.8271 97° East  Level Estimated
10:29PM 46.8624 76.0115 98° East  Level Estimated
10:30PM 46.8454 76.1957 98° East  Level Estimated
10:31PM 46.8282 76.3798 98° East  Level Estimated
10:32PM 46.8106 76.5638 98° East  Level Estimated
10:33PM 46.7927 76.7476 98° East  Level Estimated
10:34PM 46.7746 76.9314 98° East  Level Estimated
10:35PM 46.7561 77.1150 98° East  Level Estimated
10:36PM 46.7374 77.2985 99° East  Level Estimated
10:37PM 46.7183 77.4818 99° East  Level Estimated
10:38PM 46.6990 77.6650 99° East  Level Estimated
10:39PM 46.6794 77.8481 99° East  Level Estimated
10:40PM 46.6595 78.0311 99° East  Level Estimated
10:41PM 46.6392 78.2139 99° East  Level Estimated
10:42PM 46.6187 78.3966 99° East  Level Estimated
10:43PM 46.5979 78.5791 99° East  Level Estimated
10:44PM 46.5769 78.7615 100° East  Level Estimated
10:45PM 46.5555 78.9438 100° East  Level Estimated
10:46PM 46.5338 79.1259 100° East  Level Estimated
10:47PM 46.5119 79.3079 100° East  Level Estimated
10:48PM 46.4897 79.4897 100° East  Level Estimated
10:49PM 46.4671 79.6714 100° East  Level Estimated
10:50PM 46.4443 79.8529 100° East  Level Estimated
10:51PM 46.4212 80.0343 101° East  Level Estimated
10:52PM 46.3979 80.2155 101° East  Level Estimated
10:53PM 46.3742 80.3965 101° East  Level Estimated
10:54PM 46.3502 80.5774 101° East  Level Estimated
10:55PM 46.3260 80.7582 101° East  Level Estimated
10:56PM 46.3015 80.9388 101° East  Level Estimated
10:57PM 46.2766 81.1192 101° East  Level Estimated
10:58PM 46.2516 81.2994 101° East  Level Estimated
10:59PM 46.2262 81.4795 102° East  Level Estimated
11:00PM 46.2005 81.6594 102° East  Level Estimated
11:01PM 46.1746 81.8392 102° East  Level Estimated
11:02PM 46.1484 82.0188 102° East  Level Estimated
11:03PM 46.1219 82.1982 102° East  Level Estimated
11:04PM 46.0951 82.3774 102° East  Level Estimated
11:05PM 46.0680 82.5565 102° East  Level Estimated
11:06PM 46.0407 82.7354 102° East  Level Estimated
11:07PM 46.0131 82.9141 103° East  Level Estimated
11:08PM 45.9852 83.0926 103° East  Level Estimated
11:09PM 45.9570 83.2709 103° East  Level Estimated
11:10PM 45.9285 83.4491 103° East  Level Estimated
11:11PM 45.8998 83.6271 103° East  Level Estimated
11:12PM 45.8708 83.8049 103° East  Level Estimated
11:13PM 45.8415 83.9825 103° East  Level Estimated
11:14PM 45.8120 84.1599 104° East  Level Estimated
11:15PM 45.7821 84.3371 104° East  Level Estimated
11:16PM 45.7520 84.5142 104° East  Level Estimated
11:17PM 45.7216 84.6910 104° East  Level Estimated
11:18PM 45.6910 84.8677 104° East  Level Estimated
11:19PM 45.6601 85.0442 104° East  Level Estimated
11:20PM 45.6289 85.2204 104° East  Level Estimated
11:21PM 45.5974 85.3965 104° East  Level Estimated
11:22PM 45.5657 85.5724 105° East  Level Estimated
11:23PM 45.5337 85.7480 105° East  Level Estimated
11:24PM 45.5014 85.9235 105° East  Level Estimated
11:25PM 45.4689 86.0988 105° East  Level Estimated
11:26PM 45.4361 86.2738 105° East  Level Estimated
11:27PM 45.4030 86.4487 105° East  Level Estimated
11:28PM 45.3696 86.6234 105° East  Level Estimated
11:29PM 45.3360 86.7978 105° East  Level Estimated
11:30PM 45.3022 86.9721 106° East  Level Estimated
11:31PM 45.2680 87.1461 106° East  Level Estimated
11:32PM 45.2336 87.3199 106° East  Level Estimated
11:33PM 45.1989 87.4935 106° East  Level Estimated
11:34PM 45.1640 87.6669 106° East  Level Estimated
11:35PM 45.1288 87.8401 106° East  Level Estimated
11:36PM 45.0934 88.0131 106° East  Level Estimated
11:37PM 45.0577 88.1858 106° East  Level Estimated
11:38PM 45.0217 88.3584 106° East  Level Estimated
11:39PM 44.9855 88.5307 107° East  Level Estimated
11:40PM 44.9490 88.7028 107° East  Level Estimated
11:41PM 44.9122 88.8747 107° East  Level Estimated
11:42PM 44.8752 89.0463 107° East  Level Estimated
11:43PM 44.8380 89.2178 107° East  Level Estimated
11:44PM 44.8004 89.3890 107° East  Level Estimated
11:45PM 44.7627 89.5600 107° East  Level Estimated
11:46PM 44.7246 89.7308 107° East  Level Estimated
11:47PM 44.6863 89.9013 108° East  Level Estimated
11:48PM 44.6478 90.0716 108° East  Level Estimated
11:49PM 44.6090 90.2417 108° East  Level Estimated
11:50PM 44.5700 90.4116 108° East  Level Estimated
11:51PM 44.5307 90.5812 108° East  Level Estimated
11:52PM 44.4911 90.7506 108° East  Level Estimated
11:53PM 44.4513 90.9198 108° East  Level Estimated
11:54PM 44.4113 91.0888 108° East  Level Estimated
11:55PM 44.3710 91.2575 109° East  Level Estimated
11:56PM 44.3305 91.4260 109° East  Level Estimated
11:57PM 44.2897 91.5942 109° East  Level Estimated
11:58PM 44.2486 91.7623 109° East  Level Estimated
11:59PM 44.2074 91.9300 109° East  Level Estimated
12:00AM 44.1658 92.0976 109° East  Level Estimated
12:01AM 44.1241 92.2649 109° East  Level Estimated
12:02AM 44.0821 92.4320 109° East  Level Estimated
12:03AM 44.0398 92.5988 109° East  Level Estimated
12:04AM 43.9973 92.7654 110° East  Level Estimated
12:05AM 43.9546 92.9317 110° East  Level Estimated
12:06AM 43.9116 93.0979 110° East  Level Estimated
12:07AM 43.8684 93.2637 110° East  Level Estimated
12:08AM 43.8249 93.4294 110° East  Level Estimated
12:09AM 43.7812 93.5948 110° East  Level Estimated
12:10AM 43.7373 93.7599 110° East  Level Estimated
12:11AM 43.6931 93.9248 110° East  Level Estimated
12:12AM 43.6487 94.0895 111° Southeast  Level Estimated
12:13AM 43.6040 94.2539 111° Southeast  Level Estimated
12:14AM 43.5591 94.4181 111° Southeast  Level Estimated
12:15AM 43.5140 94.5820 111° Southeast  Level Estimated
12:16AM 43.4687 94.7457 111° Southeast  Level Estimated
12:17AM 43.4231 94.9091 111° Southeast  Level Estimated
12:18AM 43.3773 95.0723 111° Southeast  Level Estimated
12:19AM 43.3312 95.2353 111° Southeast  Level Estimated
12:20AM 43.2849 95.3980 111° Southeast  Level Estimated
12:21AM 43.2384 95.5604 112° Southeast  Level Estimated
12:22AM 43.1917 95.7226 112° Southeast  Level Estimated
12:23AM 43.1447 95.8846 112° Southeast  Level Estimated
12:24AM 43.0975 96.0463 112° Southeast  Level Estimated
12:25AM 43.0501 96.2077 112° Southeast  Level Estimated
12:26AM 43.0024 96.3689 112° Southeast  Level Estimated
12:27AM 42.9545 96.5299 112° Southeast  Level Estimated
12:28AM 42.9064 96.6906 112° Southeast  Level Estimated
12:29AM 42.8581 96.8510 112° Southeast  Level Estimated
12:30AM 42.8096 97.0112 113° Southeast  Level Estimated
12:31AM 42.7608 97.1712 113° Southeast  Level Estimated
12:32AM 42.7118 97.3308 113° Southeast  Level Estimated
12:33AM 42.6626 97.4903 113° Southeast  Level Estimated
12:34AM 42.6131 97.6495 113° Southeast  Level Estimated
12:35AM 42.5635 97.8084 113° Southeast  Level Estimated
12:36AM 42.5136 97.9671 113° Southeast  Level Estimated
12:37AM 42.4635 98.1255 113° Southeast  Level Estimated
12:38AM 42.4132 98.2837 113° Southeast  Level Estimated
12:39AM 42.3626 98.4416 113° Southeast  Level Estimated
12:40AM 42.3119 98.5993 114° Southeast  Level Estimated
12:41AM 42.2609 98.7567 114° Southeast  Level Estimated
12:42AM 42.2098 98.9138 114° Southeast  Level Estimated
12:43AM 42.1584 99.0707 114° Southeast  Level Estimated
12:44AM 42.1068 99.2274 114° Southeast  Level Estimated
12:45AM 42.0549 99.3838 114° Southeast  Level Estimated
12:46AM 42.0029 99.5399 114° Southeast  Level Estimated
12:47AM 41.9507 99.6958 114° Southeast  Level Estimated
12:48AM 41.8982 99.8514 114° Southeast  Level Estimated
12:49AM 41.8456 100.0068 115° Southeast  Level Estimated
12:50AM 41.7927 100.1619 115° Southeast  Level Estimated
12:51AM 41.7396 100.3168 115° Southeast  Level Estimated
12:52AM 41.6863 100.4714 115° Southeast  Level Estimated
12:53AM 41.6328 100.6257 115° Southeast  Level Estimated
12:54AM 41.5791 100.7798 115° Southeast  Level Estimated
12:55AM 41.5252 100.9336 115° Southeast  Level Estimated
12:56AM 41.4711 101.0872 115° Southeast  Level Estimated
12:57AM 41.4168 101.2405 115° Southeast  Level Estimated
12:58AM 41.3623 101.3936 115° Southeast  Level Estimated
12:59AM 41.3076 101.5464 116° Southeast  Level Estimated
01:00AM 41.2526 101.6990 116° Southeast  Level Estimated
01:01AM 41.1975 101.8512 116° Southeast  Level Estimated
01:02AM 41.1422 102.0033 116° Southeast  Level Estimated
01:03AM 41.0867 102.1551 116° Southeast  Level Estimated
01:04AM 41.0310 102.3066 116° Southeast  Level Estimated
01:05AM 40.9750 102.4578 116° Southeast  Level Estimated
01:06AM 40.9189 102.6088 116° Southeast  Level Estimated
01:07AM 40.8626 102.7596 116° Southeast  Level Estimated
01:08AM 40.8061 102.9101 116° Southeast  Level Estimated
01:09AM 40.7494 103.0603 117° Southeast  Level Estimated
01:10AM 40.6925 103.2103 117° Southeast  Level Estimated
01:11AM 40.6354 103.3600 117° Southeast  Level Estimated
01:12AM 40.5781 103.5095 117° Southeast  Level Estimated
01:13AM 40.5206 103.6587 117° Southeast  Level Estimated
01:14AM 40.4630 103.8077 117° Southeast  Level Estimated
01:15AM 40.4051 103.9564 117° Southeast  Level Estimated
01:16AM 40.3470 104.1048 117° Southeast  Level Estimated
01:17AM 40.2888 104.2530 117° Southeast  Level Estimated
01:18AM 40.2304 104.4009 117° Southeast  Level Estimated
01:19AM 40.1718 104.5486 118° Southeast  Level Estimated
01:20AM 40.1130 104.6961 118° Southeast  Level Estimated
01:21AM 40.0540 104.8432 118° Southeast  Level Estimated
01:22AM 39.9948 104.9901 118° Southeast  Level Estimated
01:23AM 39.9354 105.1368 118° Southeast  Level Estimated
01:24AM 39.8759 105.2832 118° Southeast  Level Estimated
01:25AM 39.8162 105.4294 118° Southeast  Level Estimated
01:26AM 39.7562 105.5752 118° Southeast  Level Estimated
01:27AM 39.6962 105.7209 118° Southeast  Level Estimated
01:28AM 39.6359 105.8663 118° Southeast  Level Estimated
01:29AM 39.5754 106.0114 118° Southeast  Level Estimated
01:30AM 39.5148 106.1563 119° Southeast  Level Estimated
01:31AM 39.4540 106.3009 119° Southeast  Level Estimated
01:32AM 39.3930 106.4453 119° Southeast  Level Estimated
01:33AM 39.3318 106.5894 119° Southeast  Level Estimated
01:34AM 39.2704 106.7333 119° Southeast  Level Estimated
01:35AM 39.2089 106.8769 119° Southeast  Level Estimated
01:36AM 39.1472 107.0203 119° Southeast  Level Estimated
01:37AM 39.0853 107.1634 119° Southeast  Level Estimated
01:38AM 39.0233 107.3063 119° Southeast  Level Estimated
01:39AM 38.9610 107.4489 119° Southeast  Level Estimated
01:40AM 38.8987 107.5912 119° Southeast  Level Estimated
01:41AM 38.8361 107.7333 120° Southeast  Level Estimated
01:42AM 38.7733 107.8752 120° Southeast  Level Estimated
01:43AM 38.7104 108.0168 120° Southeast  Level Estimated
01:44AM 38.6473 108.1582 120° Southeast  Level Estimated
01:45AM 38.5841 108.2993 120° Southeast  Level Estimated
01:46AM 38.5206 108.4401 120° Southeast  Level Estimated
01:47AM 38.4570 108.5807 120° Southeast  Level Estimated
01:48AM 38.3933 108.7211 120° Southeast  Level Estimated
01:49AM 38.3293 108.8612 120° Southeast  Level Estimated
01:50AM 38.2653 109.0011 120° Southeast  Level Estimated
01:51AM 38.2010 109.1407 120° Southeast  Level Estimated
01:52AM 38.1366 109.2801 120° Southeast  Level Estimated
01:53AM 38.0720 109.4193 121° Southeast  Level Estimated
01:54AM 38.0072 109.5581 121° Southeast  Level Estimated
01:55AM 37.9423 109.6968 121° Southeast  Level Estimated
01:56AM 37.8772 109.8352 121° Southeast  Level Estimated
01:57AM 37.8120 109.9733 121° Southeast  Level Estimated
01:58AM 37.7466 110.1113 121° Southeast  Level Estimated
01:59AM 37.6810 110.2489 121° Southeast  Level Estimated
02:00AM 37.6153 110.3863 121° Southeast  Level Estimated
02:01AM 37.5494 110.5235 121° Southeast  Level Estimated
02:02AM 37.4834 110.6605 121° Southeast  Level Estimated
02:03AM 37.4172 110.7971 121° Southeast  Level Estimated
02:04AM 37.3508 110.9336 122° Southeast  Level Estimated
02:05AM 37.2843 111.0698 122° Southeast  Level Estimated
02:06AM 37.2176 111.2058 122° Southeast  Level Estimated
02:07AM 37.1508 111.3415 122° Southeast  Level Estimated
02:08AM 37.0838 111.4770 122° Southeast  Level Estimated
02:09AM 37.0167 111.6123 122° Southeast  Level Estimated
02:10AM 36.9494 111.7473 122° Southeast  Level Estimated
02:11AM 36.8820 111.8820 122° Southeast  Level Estimated
02:12AM 36.8144 112.0166 122° Southeast  Level Estimated
02:13AM 36.7467 112.1509 122° Southeast  Level Estimated
02:14AM 36.6788 112.2849 122° Southeast  Level Estimated
02:15AM 36.6107 112.4187 122° Southeast  Level Estimated
02:16AM 36.5425 112.5523 122° Southeast  Level Estimated
02:17AM 36.4742 112.6857 123° Southeast  Level Estimated
02:18AM 36.4057 112.8188 123° Southeast  Level Estimated
02:19AM 36.3371 112.9517 123° Southeast  Level Estimated
02:20AM 36.2683 113.0843 123° Southeast  Level Estimated
02:21AM 36.1994 113.2167 123° Southeast  Level Estimated
02:22AM 36.1303 113.3489 123° Southeast  Level Estimated
02:23AM 36.0611 113.4809 123° Southeast  Level Estimated
02:24AM 35.9917 113.6126 123° Southeast  Level Estimated
02:25AM 35.9222 113.7440 123° Southeast  Level Estimated
02:26AM 35.8526 113.8753 123° Southeast  Level Estimated
02:27AM 35.7828 114.0063 123° Southeast  Level Estimated
02:28AM 35.7128 114.1371 123° Southeast  Level Estimated
02:29AM 35.6427 114.2677 123° Southeast  Level Estimated
02:30AM 35.5725 114.3980 124° Southeast  Level Estimated
02:31AM 35.5022 114.5281 124° Southeast  Level Estimated
02:32AM 35.4317 114.6580 124° Southeast  Level Estimated
02:33AM 35.3610 114.7876 124° Southeast  Level Estimated
02:34AM 35.2903 114.9170 124° Southeast  Level Estimated
02:35AM 35.2194 115.0462 124° Southeast  Level Estimated
02:36AM 35.1483 115.1752 124° Southeast  Level Estimated
02:37AM 35.0771 115.3039 124° Southeast  Level Estimated
02:38AM 35.0058 115.4325 124° Southeast  Level Estimated
02:39AM 34.9344 115.5608 124° Southeast  Level Estimated
02:40AM 34.8628 115.6888 124° Southeast  Level Estimated
02:41AM 34.7910 115.8167 124° Southeast  Level Estimated
02:42AM 34.7192 115.9443 124° Southeast  Level Estimated
02:43AM 34.6472 116.0717 125° Southeast  Level Estimated
02:44AM 34.5751 116.1989 125° Southeast  Level Estimated
02:45AM 34.5028 116.3259 125° Southeast  Level Estimated
02:46AM 34.4305 116.4526 125° Southeast  Level Estimated
02:47AM 34.3579 116.5791 125° Southeast  Level Estimated
02:48AM 34.2853 116.7054 125° Southeast  Level Estimated
02:49AM 34.2125 116.8315 125° Southeast  Level Estimated
02:50AM 34.1396 116.9574 125° Southeast  Level Estimated
02:51AM 34.0666 117.0830 125° Southeast  Level Estimated
02:52AM 33.9934 117.2085 125° Southeast  Level Estimated
02:53AM 33.9201 117.3337 125° Southeast  Level Estimated
02:54AM 33.8467 117.4587 125° Southeast  Level Estimated
02:55AM 33.7732 117.5835 125° Southeast  Level Estimated
02:56AM 33.6995 117.7081 125° Southeast  Level Estimated
02:57AM 33.6257 117.8324 126° Southeast  Level Estimated
02:58AM 33.5518 117.9566 126° Southeast  Level Estimated
02:59AM 33.4778 118.0805 126° Southeast  Level Estimated
03:00AM 33.4036 118.2042 126° Southeast  Level Estimated
03:01AM 33.3293 118.3277 126° Southeast  Level Estimated
03:02AM 33.2549 118.4510 126° Southeast  Level Estimated
03:03AM 33.1804 118.5741 126° Southeast  Level Estimated
03:04AM 33.1058 118.6970 126° Southeast  Level Estimated
03:05AM 33.0310 118.8197 126° Southeast  Level Estimated
03:06AM 32.9561 118.9421 126° Southeast  Level Estimated
03:07AM 32.8811 119.0644 126° Southeast  Level Estimated
03:08AM 32.8060 119.1864 126° Southeast  Level Estimated
03:09AM 32.7307 119.3083 126° Southeast  Level Estimated
03:10AM 32.6554 119.4299 126° Southeast  Level Estimated
03:11AM 32.5799 119.5514 126° Southeast  Level Estimated
03:12AM 32.5043 119.6726 127° Southeast  Level Estimated
03:13AM 32.4286 119.7936 127° Southeast  Level Estimated
03:14AM 32.3528 119.9144 127° Southeast  Level Estimated
03:15AM 32.2768 120.0350 127° Southeast  Level Estimated
03:16AM 32.2008 120.1555 127° Southeast  Level Estimated
03:17AM 32.1246 120.2757 127° Southeast  Level Estimated
03:18AM 32.0483 120.3957 127° Southeast  Level Estimated
03:19AM 31.9719 120.5155 127° Southeast  Level Estimated
03:20AM 31.8954 120.6351 127° Southeast  Level Estimated
03:21AM 31.8188 120.7545 127° Southeast  Level Estimated
03:22AM 31.7421 120.8738 127° Southeast  Level Estimated
03:23AM 31.6652 120.9928 127° Southeast  Level Estimated
03:24AM 31.5883 121.1116 127° Southeast  Level Estimated
03:25AM 31.5112 121.2302 127° Southeast  Level Estimated
03:26AM 31.4340 121.3487 127° Southeast  Level Estimated
03:27AM 31.3568 121.4669 127° Southeast  Level Estimated
03:28AM 31.2794 121.5849 128° Southeast  Level Estimated
03:29AM 31.2019 121.7028 128° Southeast  Level Estimated
03:30AM 31.1243 121.8204 308° West  Level Estimated
03:31AM 31.2019 121.7028 128° Southeast  Level Estimated
03:32AM 31.1243 121.8204 308° West  Level Estimated
03:33AM 31.2019 121.7028 128° Southeast  Level Estimated
03:34AM 31.1243 121.8204 308° West  Level Estimated
03:35AM 31.2019 121.7028 128° Southeast  Level Estimated
03:36AM 31.1243 121.8204 308° West  Level Estimated
03:37AM 31.2019 121.7028 128° Southeast  Level Estimated
03:38AM 31.1243 121.8204 308° West  Level Estimated
03:39AM 31.2019 121.7028 128° Southeast  Level Estimated
03:40AM 31.1243 121.8204 308° West  Level Estimated
03:41AM 31.2019 121.7028 128° Southeast  Level Estimated
03:42AM 31.1243 121.8204 308° West  Level Estimated
03:43AM 31.2019 121.7028 128° Southeast  Level Estimated
03:44AM 31.1243 121.8204 308° West  Level Estimated
03:45AM 31.2019 121.7028 308° West  Level Estimated